Pagina principale
METAR-TAF:

METAR-TAF

Aeroporti :

Biserta, Tunisia

latitudine: 37-15N, longitudine: 009-48E, altezza: 5 m

Osservazione

Il bollettino è stato emesso 32 minuti fa, alle 19:00 UTC
Vento 6 kt da ovest
Temperature 9°C
Umidità 93%
Pressione 1014 hPa
Visibilità: 8000 m
Nubi sparse ad un'altezza di 1600 ft
Nubi sparse ad un'altezza di 3000 ft

METAR: DTTB 191900Z 26006KT 8000 SCT016 SCT030 09/08 Q1014

Ora: 20:32 (19:32 UTC)


TAF: mancante

Osservazioni e previsioni meteorologiche di più di 4000 aeroporti (messaggi METAR e TAF).

Le stazioni disponibili sono rappresentate dai dischi gialli e rossi sulla carta.

Puntare il mouse per vedere il nome della stazione.

Clicca sopra per visualizzare le osservazioni e previsioni meteorologiche.

Per cambiare la mappa : fare clic sui pulsanti verdi con una croce nera per ingrandire, il pulsante verde con un trattino per diminuire, o sulla freccia verde per le mappe adiacenti.


METAR-TAF: